Terminal Aerodrome Forecast
Issued by NWS

Home | Current Version | Previous Version | Text Only | Print | Product List | Glossary On
Versions: 1 2 3 4 5 6 7 8 9 10 11 12 13 14 15 16 17 18 19 20 21 22 23 24 25 26 27 28 29 30 31 32
648
FTUS43 KDVN 220538
TAFCID
TAF
KCID 220538Z 2206/2306 VRB03KT 1SM BR SCT020
     FM220700 VRB03KT 1/4SM FG VV002
     FM221100 31004KT 1 1/2SM BR BKN006
     FM221300 33006KT 3SM BR BKN012
     FM221500 34010KT P6SM BKN015=

USA.gov is the U.S. government's official web portal to all federal, state and local government web resources and services.